sensor_id;sensor_type;location;lat;lon;timestamp;P1;durP1;ratioP1;P2;durP2;ratioP2
17181;SDS011;8706;48.254;16.422;2023-10-31T00:02:16;2.97;;;2.53;;
17181;SDS011;8706;48.254;16.422;2023-10-31T00:04:43;2.60;;;2.40;;
17181;SDS011;8706;48.254;16.422;2023-10-31T00:07:10;2.80;;;2.60;;
17181;SDS011;8706;48.254;16.422;2023-10-31T00:09:37;2.60;;;2.40;;
17181;SDS011;8706;48.254;16.422;2023-10-31T00:12:05;2.70;;;2.50;;
17181;SDS011;8706;48.254;16.422;2023-10-31T00:14:33;2.93;;;2.53;;
17181;SDS011;8706;48.254;16.422;2023-10-31T00:17:00;2.37;;;2.13;;
17181;SDS011;8706;48.254;16.422;2023-10-31T00:19:27;2.57;;;2.37;;
17181;SDS011;8706;48.254;16.422;2023-10-31T00:21:54;2.83;;;2.17;;
17181;SDS011;8706;48.254;16.422;2023-10-31T00:24:21;2.80;;;2.60;;
17181;SDS011;8706;48.254;16.422;2023-10-31T00:26:47;2.40;;;2.20;;
17181;SDS011;8706;48.254;16.422;2023-10-31T00:29:14;2.27;;;2.17;;
17181;SDS011;8706;48.254;16.422;2023-10-31T00:31:43;2.70;;;2.50;;
17181;SDS011;8706;48.254;16.422;2023-10-31T00:34:10;2.60;;;2.40;;
17181;SDS011;8706;48.254;16.422;2023-10-31T00:36:37;2.73;;;2.50;;
17181;SDS011;8706;48.254;16.422;2023-10-31T00:39:04;2.43;;;2.10;;
17181;SDS011;8706;48.254;16.422;2023-10-31T00:41:31;2.60;;;2.27;;
17181;SDS011;8706;48.254;16.422;2023-10-31T00:43:58;2.90;;;2.23;;
17181;SDS011;8706;48.254;16.422;2023-10-31T00:46:25;2.43;;;2.23;;
17181;SDS011;8706;48.254;16.422;2023-10-31T00:48:53;2.43;;;2.23;;
17181;SDS011;8706;48.254;16.422;2023-10-31T00:51:20;2.50;;;2.30;;
17181;SDS011;8706;48.254;16.422;2023-10-31T00:53:47;2.40;;;2.20;;
17181;SDS011;8706;48.254;16.422;2023-10-31T00:56:13;2.70;;;2.50;;
17181;SDS011;8706;48.254;16.422;2023-10-31T00:58:40;2.37;;;2.17;;
17181;SDS011;8706;48.254;16.422;2023-10-31T01:01:07;2.53;;;2.33;;
17181;SDS011;8706;48.254;16.422;2023-10-31T01:03:34;3.07;;;2.57;;
17181;SDS011;8706;48.254;16.422;2023-10-31T01:06:02;2.70;;;2.50;;
17181;SDS011;8706;48.254;16.422;2023-10-31T01:08:29;2.37;;;2.13;;
17181;SDS011;8706;48.254;16.422;2023-10-31T01:10:56;2.20;;;2.00;;
17181;SDS011;8706;48.254;16.422;2023-10-31T01:13:23;2.30;;;2.10;;
17181;SDS011;8706;48.254;16.422;2023-10-31T01:15:50;1.90;;;1.80;;
17181;SDS011;8706;48.254;16.422;2023-10-31T01:18:17;2.40;;;2.13;;
17181;SDS011;8706;48.254;16.422;2023-10-31T01:20:43;2.60;;;2.40;;
17181;SDS011;8706;48.254;16.422;2023-10-31T01:23:12;2.10;;;2.00;;
17181;SDS011;8706;48.254;16.422;2023-10-31T01:25:38;2.87;;;2.40;;
17181;SDS011;8706;48.254;16.422;2023-10-31T01:28:05;2.47;;;2.00;;
17181;SDS011;8706;48.254;16.422;2023-10-31T01:30:32;2.57;;;2.37;;
17181;SDS011;8706;48.254;16.422;2023-10-31T01:32:59;2.10;;;1.90;;
17181;SDS011;8706;48.254;16.422;2023-10-31T01:35:26;2.23;;;2.10;;
17181;SDS011;8706;48.254;16.422;2023-10-31T01:37:53;2.50;;;2.30;;
17181;SDS011;8706;48.254;16.422;2023-10-31T01:40:21;2.23;;;2.03;;
17181;SDS011;8706;48.254;16.422;2023-10-31T01:42:48;2.27;;;2.07;;
17181;SDS011;8706;48.254;16.422;2023-10-31T01:45:15;2.60;;;2.40;;
17181;SDS011;8706;48.254;16.422;2023-10-31T01:47:42;2.30;;;2.10;;
17181;SDS011;8706;48.254;16.422;2023-10-31T01:50:11;1.93;;;1.83;;
17181;SDS011;8706;48.254;16.422;2023-10-31T01:52:38;2.20;;;2.00;;
17181;SDS011;8706;48.254;16.422;2023-10-31T01:55:05;3.13;;;2.13;;
17181;SDS011;8706;48.254;16.422;2023-10-31T01:57:33;2.50;;;2.20;;
17181;SDS011;8706;48.254;16.422;2023-10-31T02:00:01;1.97;;;1.87;;
17181;SDS011;8706;48.254;16.422;2023-10-31T02:02:28;2.37;;;2.07;;
17181;SDS011;8706;48.254;16.422;2023-10-31T02:04:59;2.17;;;2.00;;
17181;SDS011;8706;48.254;16.422;2023-10-31T02:07:26;2.23;;;2.03;;
17181;SDS011;8706;48.254;16.422;2023-10-31T02:09:53;2.10;;;1.90;;
17181;SDS011;8706;48.254;16.422;2023-10-31T02:12:33;2.10;;;2.00;;
17181;SDS011;8706;48.254;16.422;2023-10-31T02:15:01;2.40;;;1.90;;
17181;SDS011;8706;48.254;16.422;2023-10-31T02:17:28;2.23;;;2.03;;
17181;SDS011;8706;48.254;16.422;2023-10-31T02:19:55;2.30;;;2.10;;
17181;SDS011;8706;48.254;16.422;2023-10-31T02:22:23;1.97;;;1.80;;
17181;SDS011;8706;48.254;16.422;2023-10-31T02:24:50;2.00;;;1.90;;
17181;SDS011;8706;48.254;16.422;2023-10-31T02:27:17;2.50;;;2.10;;
17181;SDS011;8706;48.254;16.422;2023-10-31T02:29:44;2.57;;;2.03;;
17181;SDS011;8706;48.254;16.422;2023-10-31T02:32:11;2.10;;;1.87;;
17181;SDS011;8706;48.254;16.422;2023-10-31T02:34:38;2.37;;;2.03;;
17181;SDS011;8706;48.254;16.422;2023-10-31T02:37:05;2.87;;;2.53;;
17181;SDS011;8706;48.254;16.422;2023-10-31T02:39:33;2.23;;;2.03;;
17181;SDS011;8706;48.254;16.422;2023-10-31T02:42:00;2.10;;;2.00;;
17181;SDS011;8706;48.254;16.422;2023-10-31T02:44:27;2.13;;;1.93;;
17181;SDS011;8706;48.254;16.422;2023-10-31T02:46:54;1.90;;;1.80;;
17181;SDS011;8706;48.254;16.422;2023-10-31T02:49:21;1.93;;;1.80;;
17181;SDS011;8706;48.254;16.422;2023-10-31T02:51:48;2.77;;;2.03;;
17181;SDS011;8706;48.254;16.422;2023-10-31T02:54:14;2.03;;;1.87;;
17181;SDS011;8706;48.254;16.422;2023-10-31T02:56:43;2.00;;;1.80;;
17181;SDS011;8706;48.254;16.422;2023-10-31T02:59:10;1.83;;;1.70;;
17181;SDS011;8706;48.254;16.422;2023-10-31T03:01:36;2.63;;;2.23;;
17181;SDS011;8706;48.254;16.422;2023-10-31T03:04:03;2.13;;;1.80;;
17181;SDS011;8706;48.254;16.422;2023-10-31T03:06:31;2.20;;;2.00;;
17181;SDS011;8706;48.254;16.422;2023-10-31T03:08:58;2.10;;;2.00;;
17181;SDS011;8706;48.254;16.422;2023-10-31T03:11:25;2.07;;;1.97;;
17181;SDS011;8706;48.254;16.422;2023-10-31T03:13:54;2.00;;;1.90;;
17181;SDS011;8706;48.254;16.422;2023-10-31T03:16:21;1.80;;;1.70;;
17181;SDS011;8706;48.254;16.422;2023-10-31T03:18:48;2.07;;;1.90;;
17181;SDS011;8706;48.254;16.422;2023-10-31T03:21:15;2.03;;;1.90;;
17181;SDS011;8706;48.254;16.422;2023-10-31T03:23:43;3.10;;;2.17;;
17181;SDS011;8706;48.254;16.422;2023-10-31T03:26:13;2.47;;;1.90;;
17181;SDS011;8706;48.254;16.422;2023-10-31T03:28:40;2.43;;;2.13;;
17181;SDS011;8706;48.254;16.422;2023-10-31T03:31:08;2.20;;;2.00;;
17181;SDS011;8706;48.254;16.422;2023-10-31T03:33:35;2.33;;;2.13;;
17181;SDS011;8706;48.254;16.422;2023-10-31T03:36:02;2.17;;;1.97;;
17181;SDS011;8706;48.254;16.422;2023-10-31T03:38:28;2.10;;;1.90;;
17181;SDS011;8706;48.254;16.422;2023-10-31T03:40:55;2.10;;;1.97;;
17181;SDS011;8706;48.254;16.422;2023-10-31T03:43:22;2.10;;;1.90;;
17181;SDS011;8706;48.254;16.422;2023-10-31T03:45:49;2.13;;;1.90;;
17181;SDS011;8706;48.254;16.422;2023-10-31T03:48:17;2.37;;;2.17;;
17181;SDS011;8706;48.254;16.422;2023-10-31T03:50:44;1.87;;;1.77;;
17181;SDS011;8706;48.254;16.422;2023-10-31T03:53:11;2.13;;;1.90;;
17181;SDS011;8706;48.254;16.422;2023-10-31T03:55:38;1.90;;;1.80;;
17181;SDS011;8706;48.254;16.422;2023-10-31T03:58:05;2.10;;;2.00;;
17181;SDS011;8706;48.254;16.422;2023-10-31T04:00:32;2.17;;;1.97;;
17181;SDS011;8706;48.254;16.422;2023-10-31T04:02:59;1.93;;;1.83;;
17181;SDS011;8706;48.254;16.422;2023-10-31T04:05:28;2.53;;;1.97;;
17181;SDS011;8706;48.254;16.422;2023-10-31T04:07:55;2.23;;;2.03;;
17181;SDS011;8706;48.254;16.422;2023-10-31T04:10:21;2.10;;;1.90;;
17181;SDS011;8706;48.254;16.422;2023-10-31T04:12:48;2.10;;;2.00;;
17181;SDS011;8706;48.254;16.422;2023-10-31T04:15:15;1.80;;;1.70;;
17181;SDS011;8706;48.254;16.422;2023-10-31T04:17:42;1.97;;;1.87;;
17181;SDS011;8706;48.254;16.422;2023-10-31T04:20:09;1.90;;;1.80;;
17181;SDS011;8706;48.254;16.422;2023-10-31T04:22:38;1.93;;;1.60;;
17181;SDS011;8706;48.254;16.422;2023-10-31T04:25:05;2.20;;;2.00;;
17181;SDS011;8706;48.254;16.422;2023-10-31T04:27:32;1.60;;;1.50;;
17181;SDS011;8706;48.254;16.422;2023-10-31T04:29:59;2.07;;;1.87;;
17181;SDS011;8706;48.254;16.422;2023-10-31T04:32:25;1.83;;;1.73;;
17181;SDS011;8706;48.254;16.422;2023-10-31T04:34:52;2.33;;;2.00;;
17181;SDS011;8706;48.254;16.422;2023-10-31T04:37:19;2.40;;;2.20;;
17181;SDS011;8706;48.254;16.422;2023-10-31T04:39:47;1.80;;;1.70;;
17181;SDS011;8706;48.254;16.422;2023-10-31T04:42:14;1.80;;;1.50;;
17181;SDS011;8706;48.254;16.422;2023-10-31T04:44:41;1.83;;;1.73;;
17181;SDS011;8706;48.254;16.422;2023-10-31T04:47:08;1.80;;;1.70;;
17181;SDS011;8706;48.254;16.422;2023-10-31T04:49:35;1.70;;;1.60;;
17181;SDS011;8706;48.254;16.422;2023-10-31T04:52:02;1.80;;;1.70;;
17181;SDS011;8706;48.254;16.422;2023-10-31T04:54:29;2.20;;;2.00;;
17181;SDS011;8706;48.254;16.422;2023-10-31T04:56:57;1.70;;;1.60;;
17181;SDS011;8706;48.254;16.422;2023-10-31T04:59:24;1.93;;;1.80;;
17181;SDS011;8706;48.254;16.422;2023-10-31T05:01:51;1.87;;;1.77;;
17181;SDS011;8706;48.254;16.422;2023-10-31T05:04:19;1.60;;;1.50;;
17181;SDS011;8706;48.254;16.422;2023-10-31T05:06:46;2.07;;;1.97;;
17181;SDS011;8706;48.254;16.422;2023-10-31T05:09:13;1.73;;;1.63;;
17181;SDS011;8706;48.254;16.422;2023-10-31T05:11:40;1.83;;;1.73;;
17181;SDS011;8706;48.254;16.422;2023-10-31T05:14:09;1.60;;;1.50;;
17181;SDS011;8706;48.254;16.422;2023-10-31T05:16:39;1.60;;;1.50;;
17181;SDS011;8706;48.254;16.422;2023-10-31T05:19:07;2.10;;;1.67;;
17181;SDS011;8706;48.254;16.422;2023-10-31T05:21:34;1.67;;;1.57;;
17181;SDS011;8706;48.254;16.422;2023-10-31T05:24:01;1.70;;;1.60;;
17181;SDS011;8706;48.254;16.422;2023-10-31T05:26:28;1.70;;;1.57;;
17181;SDS011;8706;48.254;16.422;2023-10-31T05:28:55;1.77;;;1.60;;
17181;SDS011;8706;48.254;16.422;2023-10-31T05:31:23;1.80;;;1.70;;
17181;SDS011;8706;48.254;16.422;2023-10-31T05:33:50;1.60;;;1.50;;
17181;SDS011;8706;48.254;16.422;2023-10-31T05:36:18;1.63;;;1.53;;
17181;SDS011;8706;48.254;16.422;2023-10-31T05:38:45;1.60;;;1.50;;
17181;SDS011;8706;48.254;16.422;2023-10-31T05:41:13;1.73;;;1.63;;
17181;SDS011;8706;48.254;16.422;2023-10-31T05:43:40;1.40;;;1.30;;
17181;SDS011;8706;48.254;16.422;2023-10-31T05:46:07;1.80;;;1.70;;
17181;SDS011;8706;48.254;16.422;2023-10-31T05:48:38;2.00;;;1.90;;
17181;SDS011;8706;48.254;16.422;2023-10-31T05:51:10;1.60;;;1.50;;
17181;SDS011;8706;48.254;16.422;2023-10-31T05:53:38;1.70;;;1.60;;
17181;SDS011;8706;48.254;16.422;2023-10-31T05:56:06;2.10;;;1.90;;
17181;SDS011;8706;48.254;16.422;2023-10-31T05:58:34;1.60;;;1.50;;
17181;SDS011;8706;48.254;16.422;2023-10-31T06:01:01;1.70;;;1.60;;
17181;SDS011;8706;48.254;16.422;2023-10-31T06:03:28;1.80;;;1.70;;
17181;SDS011;8706;48.254;16.422;2023-10-31T06:05:56;1.80;;;1.70;;
17181;SDS011;8706;48.254;16.422;2023-10-31T06:08:23;1.50;;;1.40;;
17181;SDS011;8706;48.254;16.422;2023-10-31T06:10:53;1.70;;;1.60;;
17181;SDS011;8706;48.254;16.422;2023-10-31T06:13:20;1.60;;;1.50;;
17181;SDS011;8706;48.254;16.422;2023-10-31T06:15:46;1.57;;;1.47;;
17181;SDS011;8706;48.254;16.422;2023-10-31T06:18:13;1.47;;;1.37;;
17181;SDS011;8706;48.254;16.422;2023-10-31T06:20:40;1.60;;;1.50;;
17181;SDS011;8706;48.254;16.422;2023-10-31T06:23:08;2.03;;;1.93;;
17181;SDS011;8706;48.254;16.422;2023-10-31T06:25:35;1.50;;;1.40;;
17181;SDS011;8706;48.254;16.422;2023-10-31T06:28:01;1.70;;;1.60;;
17181;SDS011;8706;48.254;16.422;2023-10-31T06:30:28;2.10;;;1.50;;
17181;SDS011;8706;48.254;16.422;2023-10-31T06:32:55;2.13;;;1.80;;
17181;SDS011;8706;48.254;16.422;2023-10-31T06:35:22;1.50;;;1.30;;
17181;SDS011;8706;48.254;16.422;2023-10-31T06:37:50;2.00;;;1.80;;
17181;SDS011;8706;48.254;16.422;2023-10-31T06:40:19;1.93;;;1.73;;
17181;SDS011;8706;48.254;16.422;2023-10-31T06:42:46;1.60;;;1.40;;
17181;SDS011;8706;48.254;16.422;2023-10-31T06:45:13;2.93;;;1.87;;
17181;SDS011;8706;48.254;16.422;2023-10-31T06:47:39;1.83;;;1.60;;
17181;SDS011;8706;48.254;16.422;2023-10-31T06:50:07;2.00;;;1.60;;
17181;SDS011;8706;48.254;16.422;2023-10-31T06:52:35;1.60;;;1.50;;
17181;SDS011;8706;48.254;16.422;2023-10-31T06:55:02;3.40;;;1.60;;
17181;SDS011;8706;48.254;16.422;2023-10-31T06:57:30;3.07;;;1.40;;
17181;SDS011;8706;48.254;16.422;2023-10-31T06:59:57;1.57;;;1.30;;
17181;SDS011;8706;48.254;16.422;2023-10-31T07:02:24;2.17;;;1.43;;
17181;SDS011;8706;48.254;16.422;2023-10-31T07:04:51;2.03;;;1.57;;
17181;SDS011;8706;48.254;16.422;2023-10-31T07:07:18;2.43;;;1.30;;
17181;SDS011;8706;48.254;16.422;2023-10-31T07:09:44;1.50;;;1.40;;
17181;SDS011;8706;48.254;16.422;2023-10-31T07:12:11;1.70;;;1.60;;
17181;SDS011;8706;48.254;16.422;2023-10-31T07:14:39;1.60;;;1.50;;
17181;SDS011;8706;48.254;16.422;2023-10-31T07:17:06;1.50;;;1.30;;
17181;SDS011;8706;48.254;16.422;2023-10-31T07:19:33;1.50;;;1.37;;
17181;SDS011;8706;48.254;16.422;2023-10-31T07:22:00;1.63;;;1.30;;
17181;SDS011;8706;48.254;16.422;2023-10-31T07:24:27;2.00;;;1.30;;
17181;SDS011;8706;48.254;16.422;2023-10-31T07:26:54;1.80;;;1.40;;
17181;SDS011;8706;48.254;16.422;2023-10-31T07:29:20;1.63;;;1.30;;
17181;SDS011;8706;48.254;16.422;2023-10-31T07:31:49;1.43;;;1.30;;
17181;SDS011;8706;48.254;16.422;2023-10-31T07:34:15;2.07;;;1.33;;
17181;SDS011;8706;48.254;16.422;2023-10-31T07:36:43;1.87;;;1.43;;
17181;SDS011;8706;48.254;16.422;2023-10-31T07:39:09;1.63;;;1.40;;
17181;SDS011;8706;48.254;16.422;2023-10-31T07:41:37;1.50;;;1.40;;
17181;SDS011;8706;48.254;16.422;2023-10-31T07:44:04;1.30;;;1.20;;
17181;SDS011;8706;48.254;16.422;2023-10-31T07:46:32;1.43;;;1.33;;
17181;SDS011;8706;48.254;16.422;2023-10-31T07:49:01;1.43;;;1.33;;
17181;SDS011;8706;48.254;16.422;2023-10-31T07:51:27;2.20;;;1.70;;
17181;SDS011;8706;48.254;16.422;2023-10-31T07:53:54;2.00;;;1.20;;
17181;SDS011;8706;48.254;16.422;2023-10-31T07:56:23;1.20;;;1.10;;
17181;SDS011;8706;48.254;16.422;2023-10-31T07:58:50;1.60;;;1.50;;
17181;SDS011;8706;48.254;16.422;2023-10-31T08:01:17;1.50;;;1.27;;
17181;SDS011;8706;48.254;16.422;2023-10-31T08:03:45;1.17;;;1.07;;
17181;SDS011;8706;48.254;16.422;2023-10-31T08:06:14;1.43;;;1.33;;
17181;SDS011;8706;48.254;16.422;2023-10-31T08:08:41;1.40;;;1.30;;
17181;SDS011;8706;48.254;16.422;2023-10-31T08:11:08;1.33;;;1.23;;
17181;SDS011;8706;48.254;16.422;2023-10-31T08:13:35;1.20;;;1.17;;
17181;SDS011;8706;48.254;16.422;2023-10-31T08:16:03;1.87;;;1.20;;
17181;SDS011;8706;48.254;16.422;2023-10-31T08:18:30;1.13;;;1.03;;
17181;SDS011;8706;48.254;16.422;2023-10-31T08:20:58;1.60;;;1.50;;
17181;SDS011;8706;48.254;16.422;2023-10-31T08:23:26;1.40;;;1.30;;
17181;SDS011;8706;48.254;16.422;2023-10-31T08:25:54;2.97;;;1.40;;
17181;SDS011;8706;48.254;16.422;2023-10-31T08:28:21;1.17;;;1.07;;
17181;SDS011;8706;48.254;16.422;2023-10-31T08:30:48;1.20;;;1.10;;
17181;SDS011;8706;48.254;16.422;2023-10-31T08:33:15;1.80;;;1.10;;
17181;SDS011;8706;48.254;16.422;2023-10-31T08:35:42;1.40;;;1.30;;
17181;SDS011;8706;48.254;16.422;2023-10-31T08:38:09;1.40;;;1.30;;
17181;SDS011;8706;48.254;16.422;2023-10-31T08:40:36;1.20;;;1.10;;
17181;SDS011;8706;48.254;16.422;2023-10-31T08:43:03;1.50;;;1.40;;
17181;SDS011;8706;48.254;16.422;2023-10-31T08:45:31;1.30;;;1.20;;
17181;SDS011;8706;48.254;16.422;2023-10-31T08:47:58;0.90;;;0.90;;
17181;SDS011;8706;48.254;16.422;2023-10-31T08:50:25;1.43;;;1.00;;
17181;SDS011;8706;48.254;16.422;2023-10-31T08:52:53;0.90;;;0.90;;
17181;SDS011;8706;48.254;16.422;2023-10-31T08:55:19;1.30;;;1.20;;
17181;SDS011;8706;48.254;16.422;2023-10-31T08:57:48;1.07;;;1.00;;
17181;SDS011;8706;48.254;16.422;2023-10-31T09:00:17;1.03;;;1.00;;
17181;SDS011;8706;48.254;16.422;2023-10-31T09:02:44;1.20;;;1.10;;
17181;SDS011;8706;48.254;16.422;2023-10-31T09:05:11;1.10;;;1.00;;
17181;SDS011;8706;48.254;16.422;2023-10-31T09:07:38;0.80;;;0.80;;
17181;SDS011;8706;48.254;16.422;2023-10-31T09:10:06;1.13;;;1.00;;
17181;SDS011;8706;48.254;16.422;2023-10-31T09:12:33;1.00;;;1.00;;
17181;SDS011;8706;48.254;16.422;2023-10-31T09:15:01;0.87;;;0.87;;
17181;SDS011;8706;48.254;16.422;2023-10-31T09:17:28;0.90;;;0.90;;
17181;SDS011;8706;48.254;16.422;2023-10-31T09:19:55;0.90;;;0.90;;
17181;SDS011;8706;48.254;16.422;2023-10-31T09:22:22;1.40;;;1.30;;
17181;SDS011;8706;48.254;16.422;2023-10-31T09:24:52;1.37;;;1.27;;
17181;SDS011;8706;48.254;16.422;2023-10-31T09:27:19;1.57;;;1.40;;
17181;SDS011;8706;48.254;16.422;2023-10-31T09:29:46;1.10;;;1.00;;
17181;SDS011;8706;48.254;16.422;2023-10-31T09:32:15;1.30;;;1.20;;
17181;SDS011;8706;48.254;16.422;2023-10-31T09:34:42;1.53;;;1.00;;
17181;SDS011;8706;48.254;16.422;2023-10-31T09:37:09;1.30;;;1.07;;
17181;SDS011;8706;48.254;16.422;2023-10-31T09:39:36;0.90;;;0.90;;
17181;SDS011;8706;48.254;16.422;2023-10-31T09:42:03;0.80;;;0.80;;
17181;SDS011;8706;48.254;16.422;2023-10-31T09:44:31;1.20;;;1.10;;
17181;SDS011;8706;48.254;16.422;2023-10-31T09:46:58;1.23;;;1.17;;
17181;SDS011;8706;48.254;16.422;2023-10-31T09:49:28;1.07;;;0.90;;
17181;SDS011;8706;48.254;16.422;2023-10-31T09:51:55;1.30;;;1.20;;
17181;SDS011;8706;48.254;16.422;2023-10-31T09:54:24;0.93;;;0.93;;
17181;SDS011;8706;48.254;16.422;2023-10-31T09:56:52;1.17;;;1.17;;
17181;SDS011;8706;48.254;16.422;2023-10-31T09:59:19;1.03;;;1.03;;
17181;SDS011;8706;48.254;16.422;2023-10-31T10:01:47;1.37;;;1.27;;
17181;SDS011;8706;48.254;16.422;2023-10-31T10:04:13;0.87;;;0.87;;
17181;SDS011;8706;48.254;16.422;2023-10-31T10:06:50;1.07;;;1.07;;
17181;SDS011;8706;48.254;16.422;2023-10-31T10:09:18;1.10;;;1.10;;
17181;SDS011;8706;48.254;16.422;2023-10-31T10:11:45;1.00;;;1.00;;
17181;SDS011;8706;48.254;16.422;2023-10-31T10:14:12;1.37;;;1.07;;
17181;SDS011;8706;48.254;16.422;2023-10-31T10:16:39;1.00;;;1.00;;
17181;SDS011;8706;48.254;16.422;2023-10-31T10:19:15;0.90;;;0.90;;
17181;SDS011;8706;48.254;16.422;2023-10-31T10:21:47;1.00;;;1.00;;
17181;SDS011;8706;48.254;16.422;2023-10-31T10:24:16;0.97;;;0.97;;
17181;SDS011;8706;48.254;16.422;2023-10-31T10:26:43;1.00;;;1.00;;
17181;SDS011;8706;48.254;16.422;2023-10-31T10:29:10;1.00;;;1.00;;
17181;SDS011;8706;48.254;16.422;2023-10-31T10:31:37;0.90;;;0.90;;
17181;SDS011;8706;48.254;16.422;2023-10-31T10:34:04;1.30;;;1.20;;
17181;SDS011;8706;48.254;16.422;2023-10-31T10:36:32;1.00;;;1.00;;
17181;SDS011;8706;48.254;16.422;2023-10-31T10:39:00;1.27;;;1.17;;
17181;SDS011;8706;48.254;16.422;2023-10-31T10:41:30;1.00;;;0.90;;
17181;SDS011;8706;48.254;16.422;2023-10-31T10:44:03;0.80;;;0.80;;
17181;SDS011;8706;48.254;16.422;2023-10-31T10:46:32;1.03;;;1.03;;
17181;SDS011;8706;48.254;16.422;2023-10-31T10:49:02;0.90;;;0.90;;
17181;SDS011;8706;48.254;16.422;2023-10-31T10:51:35;1.30;;;1.20;;
17181;SDS011;8706;48.254;16.422;2023-10-31T10:54:18;0.93;;;0.93;;
17181;SDS011;8706;48.254;16.422;2023-10-31T10:56:54;0.77;;;0.77;;
17181;SDS011;8706;48.254;16.422;2023-10-31T10:59:26;1.03;;;1.00;;
17181;SDS011;8706;48.254;16.422;2023-10-31T11:02:01;1.27;;;0.80;;
17181;SDS011;8706;48.254;16.422;2023-10-31T11:04:32;0.90;;;0.90;;
17181;SDS011;8706;48.254;16.422;2023-10-31T11:07:01;1.20;;;1.20;;
17181;SDS011;8706;48.254;16.422;2023-10-31T11:09:28;1.10;;;1.00;;
17181;SDS011;8706;48.254;16.422;2023-10-31T11:11:58;0.97;;;0.97;;
17181;SDS011;8706;48.254;16.422;2023-10-31T11:14:26;1.23;;;1.23;;
17181;SDS011;8706;48.254;16.422;2023-10-31T11:16:55;1.20;;;1.10;;
17181;SDS011;8706;48.254;16.422;2023-10-31T11:19:25;0.87;;;0.87;;
17181;SDS011;8706;48.254;16.422;2023-10-31T11:21:53;1.53;;;1.10;;
17181;SDS011;8706;48.254;16.422;2023-10-31T11:24:21;1.03;;;1.03;;
17181;SDS011;8706;48.254;16.422;2023-10-31T11:26:52;1.07;;;0.97;;
17181;SDS011;8706;48.254;16.422;2023-10-31T11:29:21;0.90;;;0.90;;
17181;SDS011;8706;48.254;16.422;2023-10-31T11:31:48;0.80;;;0.80;;
17181;SDS011;8706;48.254;16.422;2023-10-31T11:34:16;1.10;;;1.10;;
17181;SDS011;8706;48.254;16.422;2023-10-31T11:36:44;1.07;;;1.00;;
17181;SDS011;8706;48.254;16.422;2023-10-31T11:39:12;0.80;;;0.80;;
17181;SDS011;8706;48.254;16.422;2023-10-31T11:41:39;0.77;;;0.77;;
17181;SDS011;8706;48.254;16.422;2023-10-31T11:44:07;0.60;;;0.60;;
17181;SDS011;8706;48.254;16.422;2023-10-31T11:46:35;0.87;;;0.87;;
17181;SDS011;8706;48.254;16.422;2023-10-31T11:49:02;0.70;;;0.70;;
17181;SDS011;8706;48.254;16.422;2023-10-31T11:51:30;0.73;;;0.73;;
17181;SDS011;8706;48.254;16.422;2023-10-31T11:53:57;1.10;;;1.00;;
17181;SDS011;8706;48.254;16.422;2023-10-31T11:56:25;0.90;;;0.80;;
17181;SDS011;8706;48.254;16.422;2023-10-31T11:58:56;0.80;;;0.80;;
17181;SDS011;8706;48.254;16.422;2023-10-31T12:01:24;0.90;;;0.90;;
17181;SDS011;8706;48.254;16.422;2023-10-31T12:03:52;0.70;;;0.70;;
17181;SDS011;8706;48.254;16.422;2023-10-31T12:06:19;0.80;;;0.80;;
17181;SDS011;8706;48.254;16.422;2023-10-31T12:08:46;0.93;;;0.93;;
17181;SDS011;8706;48.254;16.422;2023-10-31T12:11:14;0.87;;;0.87;;
17181;SDS011;8706;48.254;16.422;2023-10-31T12:13:51;0.70;;;0.70;;
17181;SDS011;8706;48.254;16.422;2023-10-31T12:16:19;0.63;;;0.63;;
17181;SDS011;8706;48.254;16.422;2023-10-31T12:18:55;0.80;;;0.80;;
17181;SDS011;8706;48.254;16.422;2023-10-31T12:21:38;1.17;;;1.07;;
17181;SDS011;8706;48.254;16.422;2023-10-31T12:24:07;1.10;;;1.10;;
17181;SDS011;8706;48.254;16.422;2023-10-31T12:26:35;0.90;;;0.90;;
17181;SDS011;8706;48.254;16.422;2023-10-31T12:29:11;0.70;;;0.70;;
17181;SDS011;8706;48.254;16.422;2023-10-31T12:31:40;0.87;;;0.87;;
17181;SDS011;8706;48.254;16.422;2023-10-31T12:34:11;1.13;;;1.03;;
17181;SDS011;8706;48.254;16.422;2023-10-31T12:36:39;0.70;;;0.70;;
17181;SDS011;8706;48.254;16.422;2023-10-31T12:39:07;0.90;;;0.90;;
17181;SDS011;8706;48.254;16.422;2023-10-31T12:41:36;0.87;;;0.80;;
17181;SDS011;8706;48.254;16.422;2023-10-31T12:44:04;0.70;;;0.70;;
17181;SDS011;8706;48.254;16.422;2023-10-31T12:46:33;1.00;;;1.00;;
17181;SDS011;8706;48.254;16.422;2023-10-31T12:49:01;0.90;;;0.90;;
17181;SDS011;8706;48.254;16.422;2023-10-31T12:51:29;0.80;;;0.80;;
17181;SDS011;8706;48.254;16.422;2023-10-31T12:53:56;0.80;;;0.80;;
17181;SDS011;8706;48.254;16.422;2023-10-31T12:56:38;0.90;;;0.90;;
17181;SDS011;8706;48.254;16.422;2023-10-31T12:59:06;0.77;;;0.77;;
17181;SDS011;8706;48.254;16.422;2023-10-31T13:01:33;1.17;;;1.07;;
17181;SDS011;8706;48.254;16.422;2023-10-31T13:04:02;0.70;;;0.70;;
17181;SDS011;8706;48.254;16.422;2023-10-31T13:06:30;0.70;;;0.70;;
17181;SDS011;8706;48.254;16.422;2023-10-31T13:08:57;0.70;;;0.70;;
17181;SDS011;8706;48.254;16.422;2023-10-31T13:11:28;0.77;;;0.77;;
17181;SDS011;8706;48.254;16.422;2023-10-31T13:13:55;0.80;;;0.80;;
17181;SDS011;8706;48.254;16.422;2023-10-31T13:16:23;0.80;;;0.80;;
17181;SDS011;8706;48.254;16.422;2023-10-31T13:18:51;1.00;;;0.90;;
17181;SDS011;8706;48.254;16.422;2023-10-31T13:21:18;1.40;;;1.30;;
17181;SDS011;8706;48.254;16.422;2023-10-31T13:23:47;0.70;;;0.70;;
17181;SDS011;8706;48.254;16.422;2023-10-31T13:26:13;0.60;;;0.60;;
17181;SDS011;8706;48.254;16.422;2023-10-31T13:28:41;0.63;;;0.63;;
17181;SDS011;8706;48.254;16.422;2023-10-31T13:31:08;0.63;;;0.63;;
17181;SDS011;8706;48.254;16.422;2023-10-31T13:33:36;1.33;;;0.90;;
17181;SDS011;8706;48.254;16.422;2023-10-31T13:36:03;0.67;;;0.67;;
17181;SDS011;8706;48.254;16.422;2023-10-31T13:38:31;0.73;;;0.73;;
17181;SDS011;8706;48.254;16.422;2023-10-31T13:40:59;0.90;;;0.90;;
17181;SDS011;8706;48.254;16.422;2023-10-31T13:43:26;0.70;;;0.70;;
17181;SDS011;8706;48.254;16.422;2023-10-31T13:45:53;0.67;;;0.67;;
17181;SDS011;8706;48.254;16.422;2023-10-31T13:48:20;0.70;;;0.70;;
17181;SDS011;8706;48.254;16.422;2023-10-31T13:50:47;0.70;;;0.70;;
17181;SDS011;8706;48.254;16.422;2023-10-31T13:53:15;0.60;;;0.60;;
17181;SDS011;8706;48.254;16.422;2023-10-31T13:55:42;0.70;;;0.70;;
17181;SDS011;8706;48.254;16.422;2023-10-31T13:58:10;0.70;;;0.70;;
17181;SDS011;8706;48.254;16.422;2023-10-31T14:00:37;0.87;;;0.87;;
17181;SDS011;8706;48.254;16.422;2023-10-31T14:03:04;0.90;;;0.90;;
17181;SDS011;8706;48.254;16.422;2023-10-31T14:05:31;0.90;;;0.90;;
17181;SDS011;8706;48.254;16.422;2023-10-31T14:07:58;0.70;;;0.70;;
17181;SDS011;8706;48.254;16.422;2023-10-31T14:10:25;0.60;;;0.60;;
17181;SDS011;8706;48.254;16.422;2023-10-31T14:12:52;1.00;;;1.00;;
17181;SDS011;8706;48.254;16.422;2023-10-31T14:15:21;1.10;;;1.10;;
17181;SDS011;8706;48.254;16.422;2023-10-31T14:17:50;0.73;;;0.73;;
17181;SDS011;8706;48.254;16.422;2023-10-31T14:20:17;1.00;;;1.00;;
17181;SDS011;8706;48.254;16.422;2023-10-31T14:22:47;0.90;;;0.70;;
17181;SDS011;8706;48.254;16.422;2023-10-31T14:25:14;0.83;;;0.80;;
17181;SDS011;8706;48.254;16.422;2023-10-31T14:27:41;0.83;;;0.83;;
17181;SDS011;8706;48.254;16.422;2023-10-31T14:30:09;0.80;;;0.80;;
17181;SDS011;8706;48.254;16.422;2023-10-31T14:32:38;0.63;;;0.63;;
17181;SDS011;8706;48.254;16.422;2023-10-31T14:35:06;1.10;;;1.10;;
17181;SDS011;8706;48.254;16.422;2023-10-31T14:37:33;1.17;;;0.90;;
17181;SDS011;8706;48.254;16.422;2023-10-31T14:40:01;0.70;;;0.70;;
17181;SDS011;8706;48.254;16.422;2023-10-31T14:42:29;0.77;;;0.77;;
17181;SDS011;8706;48.254;16.422;2023-10-31T14:44:55;0.63;;;0.63;;
17181;SDS011;8706;48.254;16.422;2023-10-31T14:47:22;0.80;;;0.80;;
17181;SDS011;8706;48.254;16.422;2023-10-31T14:49:51;0.87;;;0.87;;
17181;SDS011;8706;48.254;16.422;2023-10-31T14:52:18;0.60;;;0.60;;